METAR Data

Data at: 1822 UTC 21 Nov 2018

METAR for:KBHB (Bar Harbor/Hancock C, ME, US)
Text:KBHB 211756Z AUTO 23010G18KT 10SM FEW075 OVC100 00/M05 A2980 RMK AO2 SLP095 T00001050 10000 21050 58033 FZRANO
Temperature: 0.0°C ( 32°F)
Dewpoint: -5.0°C ( 23°F) [RH = 69%]
Pressure (altimeter):29.80 inches Hg (1009.2 mb) [Sea level pressure: 1009.5 mb]
Winds:from the SW (230 degrees) at 12 MPH (10 knots; 5.1 m/s) gusting to 21 MPH (18 knots; 9.3 m/s)
Visibility:10 or more sm (16+ km)
Ceiling:10000 feet AGL
Clouds: few clouds at 7500 feet AGL, overcast cloud deck at 10000 feet AGL
QC Flag:automated observation with no human augmentation